sensor_id;sensor_type;location;lat;lon;timestamp;P1;durP1;ratioP1;P2;durP2;ratioP2
38085;SDS011;23896;50.678;10.924;2022-10-31T02:47:34;10.93;;;3.85;;
38085;SDS011;23896;50.678;10.924;2022-10-31T02:50:04;6.68;;;3.33;;
38085;SDS011;23896;50.678;10.924;2022-10-31T02:52:35;12.07;;;3.30;;
38085;SDS011;23896;50.678;10.924;2022-10-31T02:58:13;6.97;;;3.20;;
38085;SDS011;23896;50.678;10.924;2022-10-31T03:00:54;9.52;;;3.60;;
38085;SDS011;23896;50.678;10.924;2022-10-31T03:03:25;9.52;;;2.97;;
38085;SDS011;23896;50.678;10.924;2022-10-31T03:08:26;9.90;;;3.08;;
38085;SDS011;23896;50.678;10.924;2022-10-31T03:10:58;7.82;;;2.85;;
38085;SDS011;23896;50.678;10.924;2022-10-31T03:24:28;7.38;;;3.25;;
38085;SDS011;23896;50.678;10.924;2022-10-31T03:26:57;9.63;;;3.17;;
38085;SDS011;23896;50.678;10.924;2022-10-31T03:29:28;9.80;;;3.42;;
38085;SDS011;23896;50.678;10.924;2022-10-31T03:34:37;8.20;;;3.08;;
38085;SDS011;23896;50.678;10.924;2022-10-31T03:37:07;7.78;;;3.45;;
38085;SDS011;23896;50.678;10.924;2022-10-31T03:39:35;9.57;;;2.90;;
38085;SDS011;23896;50.678;10.924;2022-10-31T03:42:07;8.23;;;3.88;;
38085;SDS011;23896;50.678;10.924;2022-10-31T03:44:35;9.48;;;3.33;;
38085;SDS011;23896;50.678;10.924;2022-10-31T03:47:02;7.55;;;2.92;;
38085;SDS011;23896;50.678;10.924;2022-10-31T03:49:30;8.48;;;3.20;;
38085;SDS011;23896;50.678;10.924;2022-10-31T03:59:37;12.02;;;3.40;;
38085;SDS011;23896;50.678;10.924;2022-10-31T04:02:07;6.90;;;3.00;;
38085;SDS011;23896;50.678;10.924;2022-10-31T04:04:37;9.05;;;2.97;;
38085;SDS011;23896;50.678;10.924;2022-10-31T04:07:04;10.52;;;3.20;;
38085;SDS011;23896;50.678;10.924;2022-10-31T04:09:33;8.40;;;3.00;;
38085;SDS011;23896;50.678;10.924;2022-10-31T04:12:00;5.20;;;2.80;;
38085;SDS011;23896;50.678;10.924;2022-10-31T04:14:27;10.30;;;3.45;;
38085;SDS011;23896;50.678;10.924;2022-10-31T04:16:56;11.80;;;2.88;;
38085;SDS011;23896;50.678;10.924;2022-10-31T04:19:22;15.10;;;3.70;;
38085;SDS011;23896;50.678;10.924;2022-10-31T04:21:49;13.70;;;3.58;;
38085;SDS011;23896;50.678;10.924;2022-10-31T04:24:15;9.32;;;3.33;;
38085;SDS011;23896;50.678;10.924;2022-10-31T04:26:41;7.90;;;2.88;;
38085;SDS011;23896;50.678;10.924;2022-10-31T04:29:08;7.45;;;2.88;;
38085;SDS011;23896;50.678;10.924;2022-10-31T04:31:34;13.30;;;3.28;;
38085;SDS011;23896;50.678;10.924;2022-10-31T04:34:00;10.77;;;3.28;;
38085;SDS011;23896;50.678;10.924;2022-10-31T04:36:27;12.45;;;2.90;;
38085;SDS011;23896;50.678;10.924;2022-10-31T04:38:55;8.75;;;3.17;;
38085;SDS011;23896;50.678;10.924;2022-10-31T04:41:22;11.93;;;3.75;;
38085;SDS011;23896;50.678;10.924;2022-10-31T04:43:50;14.35;;;3.33;;
38085;SDS011;23896;50.678;10.924;2022-10-31T04:46:20;4.45;;;2.70;;
38085;SDS011;23896;50.678;10.924;2022-10-31T04:48:47;11.57;;;3.47;;
38085;SDS011;23896;50.678;10.924;2022-10-31T04:51:14;8.60;;;2.85;;
38085;SDS011;23896;50.678;10.924;2022-10-31T04:53:42;10.27;;;3.28;;
38085;SDS011;23896;50.678;10.924;2022-10-31T04:56:10;8.13;;;3.10;;
38085;SDS011;23896;50.678;10.924;2022-10-31T04:58:37;6.18;;;2.78;;
38085;SDS011;23896;50.678;10.924;2022-10-31T05:01:05;10.57;;;3.78;;
38085;SDS011;23896;50.678;10.924;2022-10-31T05:03:32;15.75;;;3.72;;
38085;SDS011;23896;50.678;10.924;2022-10-31T05:05:59;11.85;;;3.75;;
38085;SDS011;23896;50.678;10.924;2022-10-31T05:08:29;7.90;;;2.97;;
38085;SDS011;23896;50.678;10.924;2022-10-31T05:10:58;5.53;;;3.17;;
38085;SDS011;23896;50.678;10.924;2022-10-31T05:13:27;6.07;;;2.95;;
38085;SDS011;23896;50.678;10.924;2022-10-31T05:15:53;9.88;;;2.72;;
38085;SDS011;23896;50.678;10.924;2022-10-31T05:18:21;7.80;;;3.80;;
38085;SDS011;23896;50.678;10.924;2022-10-31T05:20:48;8.77;;;3.20;;
38085;SDS011;23896;50.678;10.924;2022-10-31T05:23:15;8.25;;;2.55;;
38085;SDS011;23896;50.678;10.924;2022-10-31T05:25:41;8.70;;;2.75;;
38085;SDS011;23896;50.678;10.924;2022-10-31T05:28:08;7.13;;;3.05;;
38085;SDS011;23896;50.678;10.924;2022-10-31T05:30:37;10.27;;;3.42;;
38085;SDS011;23896;50.678;10.924;2022-10-31T05:33:03;11.27;;;3.92;;
38085;SDS011;23896;50.678;10.924;2022-10-31T05:35:31;4.43;;;2.90;;
38085;SDS011;23896;50.678;10.924;2022-10-31T05:37:58;6.63;;;3.25;;
38085;SDS011;23896;50.678;10.924;2022-10-31T05:40:25;8.18;;;3.70;;
38085;SDS011;23896;50.678;10.924;2022-10-31T05:42:55;7.18;;;3.15;;
38085;SDS011;23896;50.678;10.924;2022-10-31T05:45:26;9.55;;;3.00;;
38085;SDS011;23896;50.678;10.924;2022-10-31T05:47:57;10.50;;;3.33;;
38085;SDS011;23896;50.678;10.924;2022-10-31T05:50:24;15.30;;;3.40;;
38085;SDS011;23896;50.678;10.924;2022-10-31T05:52:54;6.05;;;2.85;;
38085;SDS011;23896;50.678;10.924;2022-10-31T05:55:20;5.63;;;3.47;;
38085;SDS011;23896;50.678;10.924;2022-10-31T05:57:47;9.38;;;3.13;;
38085;SDS011;23896;50.678;10.924;2022-10-31T06:00:13;6.00;;;3.13;;
38085;SDS011;23896;50.678;10.924;2022-10-31T06:02:39;7.90;;;3.45;;
38085;SDS011;23896;50.678;10.924;2022-10-31T06:05:09;8.27;;;2.83;;
38085;SDS011;23896;50.678;10.924;2022-10-31T06:07:39;9.68;;;3.60;;
38085;SDS011;23896;50.678;10.924;2022-10-31T06:10:06;15.68;;;3.67;;
38085;SDS011;23896;50.678;10.924;2022-10-31T06:12:33;8.30;;;3.95;;
38085;SDS011;23896;50.678;10.924;2022-10-31T06:15:03;10.10;;;3.55;;
38085;SDS011;23896;50.678;10.924;2022-10-31T06:17:30;7.35;;;3.10;;
38085;SDS011;23896;50.678;10.924;2022-10-31T06:19:57;8.93;;;3.10;;
38085;SDS011;23896;50.678;10.924;2022-10-31T06:22:23;9.95;;;4.00;;
38085;SDS011;23896;50.678;10.924;2022-10-31T06:24:50;8.32;;;4.05;;
38085;SDS011;23896;50.678;10.924;2022-10-31T06:27:17;9.43;;;4.32;;
38085;SDS011;23896;50.678;10.924;2022-10-31T06:29:43;11.82;;;4.78;;
38085;SDS011;23896;50.678;10.924;2022-10-31T06:32:12;10.52;;;4.57;;
38085;SDS011;23896;50.678;10.924;2022-10-31T06:34:39;9.55;;;4.53;;
38085;SDS011;23896;50.678;10.924;2022-10-31T06:37:11;11.10;;;4.63;;
38085;SDS011;23896;50.678;10.924;2022-10-31T06:39:45;9.07;;;3.95;;
38085;SDS011;23896;50.678;10.924;2022-10-31T06:42:11;8.02;;;3.38;;
38085;SDS011;23896;50.678;10.924;2022-10-31T06:44:37;6.75;;;3.60;;
38085;SDS011;23896;50.678;10.924;2022-10-31T06:47:07;10.95;;;3.65;;
38085;SDS011;23896;50.678;10.924;2022-10-31T06:49:33;9.63;;;4.28;;
38085;SDS011;23896;50.678;10.924;2022-10-31T06:52:00;6.43;;;3.53;;
38085;SDS011;23896;50.678;10.924;2022-10-31T06:54:26;4.18;;;3.40;;
38085;SDS011;23896;50.678;10.924;2022-10-31T06:56:53;8.93;;;3.80;;
38085;SDS011;23896;50.678;10.924;2022-10-31T06:59:19;8.90;;;3.03;;
38085;SDS011;23896;50.678;10.924;2022-10-31T07:01:46;13.02;;;3.92;;
38085;SDS011;23896;50.678;10.924;2022-10-31T07:04:15;8.40;;;3.50;;
38085;SDS011;23896;50.678;10.924;2022-10-31T07:06:42;9.68;;;2.83;;
38085;SDS011;23896;50.678;10.924;2022-10-31T07:09:08;11.93;;;3.90;;
38085;SDS011;23896;50.678;10.924;2022-10-31T07:11:35;6.32;;;3.20;;
38085;SDS011;23896;50.678;10.924;2022-10-31T07:14:01;12.10;;;3.88;;
38085;SDS011;23896;50.678;10.924;2022-10-31T07:16:28;10.63;;;3.72;;
38085;SDS011;23896;50.678;10.924;2022-10-31T07:18:54;5.95;;;3.85;;
38085;SDS011;23896;50.678;10.924;2022-10-31T07:21:21;7.32;;;3.72;;
38085;SDS011;23896;50.678;10.924;2022-10-31T07:23:48;6.45;;;4.05;;
38085;SDS011;23896;50.678;10.924;2022-10-31T07:26:14;5.22;;;3.92;;
38085;SDS011;23896;50.678;10.924;2022-10-31T07:28:45;9.70;;;3.63;;
38085;SDS011;23896;50.678;10.924;2022-10-31T07:31:15;9.48;;;3.60;;
38085;SDS011;23896;50.678;10.924;2022-10-31T07:33:42;10.70;;;3.97;;
38085;SDS011;23896;50.678;10.924;2022-10-31T07:36:11;7.88;;;4.20;;
38085;SDS011;23896;50.678;10.924;2022-10-31T07:38:38;8.10;;;3.85;;
38085;SDS011;23896;50.678;10.924;2022-10-31T07:41:04;5.85;;;3.55;;
38085;SDS011;23896;50.678;10.924;2022-10-31T07:43:32;8.30;;;4.18;;
38085;SDS011;23896;50.678;10.924;2022-10-31T07:46:01;11.30;;;4.10;;
38085;SDS011;23896;50.678;10.924;2022-10-31T07:48:28;10.32;;;4.85;;
38085;SDS011;23896;50.678;10.924;2022-10-31T07:50:58;16.50;;;8.48;;
38085;SDS011;23896;50.678;10.924;2022-10-31T07:53:27;11.15;;;4.93;;
38085;SDS011;23896;50.678;10.924;2022-10-31T07:55:57;10.35;;;3.65;;
38085;SDS011;23896;50.678;10.924;2022-10-31T07:58:23;6.78;;;3.88;;
38085;SDS011;23896;50.678;10.924;2022-10-31T08:00:53;8.90;;;3.80;;
38085;SDS011;23896;50.678;10.924;2022-10-31T08:03:21;6.30;;;3.58;;
38085;SDS011;23896;50.678;10.924;2022-10-31T08:05:48;13.75;;;4.22;;
38085;SDS011;23896;50.678;10.924;2022-10-31T08:08:14;5.38;;;3.22;;
38085;SDS011;23896;50.678;10.924;2022-10-31T08:10:41;9.55;;;4.68;;
38085;SDS011;23896;50.678;10.924;2022-10-31T08:13:09;16.88;;;4.25;;
38085;SDS011;23896;50.678;10.924;2022-10-31T08:15:36;8.75;;;3.75;;
38085;SDS011;23896;50.678;10.924;2022-10-31T08:18:05;12.73;;;4.03;;
38085;SDS011;23896;50.678;10.924;2022-10-31T08:20:31;10.23;;;4.68;;
38085;SDS011;23896;50.678;10.924;2022-10-31T08:22:59;8.50;;;4.03;;
38085;SDS011;23896;50.678;10.924;2022-10-31T08:25:26;8.45;;;4.32;;
38085;SDS011;23896;50.678;10.924;2022-10-31T08:27:53;9.30;;;4.50;;
38085;SDS011;23896;50.678;10.924;2022-10-31T08:30:21;9.02;;;4.13;;
38085;SDS011;23896;50.678;10.924;2022-10-31T08:32:47;10.25;;;3.80;;
38085;SDS011;23896;50.678;10.924;2022-10-31T08:35:26;9.95;;;4.22;;
38085;SDS011;23896;50.678;10.924;2022-10-31T08:37:54;11.20;;;4.07;;
38085;SDS011;23896;50.678;10.924;2022-10-31T08:40:23;8.32;;;3.75;;
38085;SDS011;23896;50.678;10.924;2022-10-31T08:43:06;8.32;;;3.60;;
38085;SDS011;23896;50.678;10.924;2022-10-31T08:45:34;11.70;;;3.80;;
38085;SDS011;23896;50.678;10.924;2022-10-31T08:48:05;7.75;;;3.83;;
38085;SDS011;23896;50.678;10.924;2022-10-31T08:50:34;12.05;;;3.75;;
38085;SDS011;23896;50.678;10.924;2022-10-31T08:53:04;8.43;;;3.53;;
38085;SDS011;23896;50.678;10.924;2022-10-31T08:55:32;10.40;;;4.05;;
38085;SDS011;23896;50.678;10.924;2022-10-31T08:57:59;9.63;;;3.90;;
38085;SDS011;23896;50.678;10.924;2022-10-31T09:00:26;14.25;;;4.45;;
38085;SDS011;23896;50.678;10.924;2022-10-31T09:02:59;7.43;;;3.50;;
38085;SDS011;23896;50.678;10.924;2022-10-31T09:05:26;10.20;;;4.00;;
38085;SDS011;23896;50.678;10.924;2022-10-31T09:07:59;5.75;;;3.60;;
38085;SDS011;23896;50.678;10.924;2022-10-31T09:10:26;9.73;;;4.00;;
38085;SDS011;23896;50.678;10.924;2022-10-31T09:12:59;12.73;;;5.53;;
38085;SDS011;23896;50.678;10.924;2022-10-31T09:15:26;11.60;;;4.97;;
38085;SDS011;23896;50.678;10.924;2022-10-31T09:17:53;22.30;;;5.40;;
38085;SDS011;23896;50.678;10.924;2022-10-31T09:20:19;10.60;;;5.90;;
38085;SDS011;23896;50.678;10.924;2022-10-31T09:22:55;18.23;;;5.47;;
38085;SDS011;23896;50.678;10.924;2022-10-31T09:25:23;16.65;;;6.40;;
38085;SDS011;23896;50.678;10.924;2022-10-31T09:27:49;11.27;;;6.53;;
38085;SDS011;23896;50.678;10.924;2022-10-31T09:30:19;15.18;;;5.07;;
38085;SDS011;23896;50.678;10.924;2022-10-31T09:32:45;12.93;;;5.90;;
38085;SDS011;23896;50.678;10.924;2022-10-31T09:35:14;13.20;;;6.03;;
38085;SDS011;23896;50.678;10.924;2022-10-31T09:37:41;12.88;;;5.63;;
38085;SDS011;23896;50.678;10.924;2022-10-31T09:40:07;11.57;;;5.57;;
38085;SDS011;23896;50.678;10.924;2022-10-31T09:45:20;14.32;;;5.30;;
38085;SDS011;23896;50.678;10.924;2022-10-31T09:50:36;15.70;;;5.40;;
38085;SDS011;23896;50.678;10.924;2022-10-31T09:53:08;7.80;;;4.65;;
38085;SDS011;23896;50.678;10.924;2022-10-31T09:55:38;14.57;;;5.10;;
38085;SDS011;23896;50.678;10.924;2022-10-31T09:58:05;16.05;;;5.95;;
38085;SDS011;23896;50.678;10.924;2022-10-31T10:00:33;13.35;;;4.75;;
38085;SDS011;23896;50.678;10.924;2022-10-31T10:05:38;14.23;;;4.50;;
38085;SDS011;23896;50.678;10.924;2022-10-31T10:18:31;8.85;;;4.50;;
38085;SDS011;23896;50.678;10.924;2022-10-31T10:21:09;12.02;;;5.25;;
38085;SDS011;23896;50.678;10.924;2022-10-31T10:26:28;13.50;;;5.22;;
38085;SDS011;23896;50.678;10.924;2022-10-31T10:28:57;10.63;;;4.90;;
38085;SDS011;23896;50.678;10.924;2022-10-31T10:31:25;15.30;;;5.72;;
38085;SDS011;23896;50.678;10.924;2022-10-31T10:38:53;10.88;;;4.38;;
38085;SDS011;23896;50.678;10.924;2022-10-31T10:41:28;9.68;;;5.15;;
38085;SDS011;23896;50.678;10.924;2022-10-31T10:43:56;9.95;;;4.63;;
38085;SDS011;23896;50.678;10.924;2022-10-31T10:59:44;13.13;;;4.55;;
38085;SDS011;23896;50.678;10.924;2022-10-31T11:02:43;11.27;;;4.40;;
38085;SDS011;23896;50.678;10.924;2022-10-31T11:05:02;10.70;;;3.97;;
38085;SDS011;23896;50.678;10.924;2022-10-31T11:07:39;10.77;;;4.28;;
38085;SDS011;23896;50.678;10.924;2022-10-31T11:10:06;10.30;;;4.40;;
38085;SDS011;23896;50.678;10.924;2022-10-31T11:12:38;10.65;;;4.60;;
38085;SDS011;23896;50.678;10.924;2022-10-31T11:15:16;7.70;;;3.80;;
38085;SDS011;23896;50.678;10.924;2022-10-31T11:17:48;12.63;;;4.40;;
38085;SDS011;23896;50.678;10.924;2022-10-31T11:22:42;15.15;;;4.32;;
38085;SDS011;23896;50.678;10.924;2022-10-31T11:27:58;9.65;;;4.68;;
38085;SDS011;23896;50.678;10.924;2022-10-31T11:30:24;10.23;;;4.45;;
38085;SDS011;23896;50.678;10.924;2022-10-31T11:32:51;15.05;;;4.93;;
38085;SDS011;23896;50.678;10.924;2022-10-31T11:35:18;7.10;;;4.55;;
38085;SDS011;23896;50.678;10.924;2022-10-31T11:37:46;10.23;;;4.47;;
38085;SDS011;23896;50.678;10.924;2022-10-31T11:40:25;7.22;;;4.18;;
38085;SDS011;23896;50.678;10.924;2022-10-31T11:42:53;9.70;;;4.40;;
38085;SDS011;23896;50.678;10.924;2022-10-31T11:47:50;7.90;;;3.83;;
38085;SDS011;23896;50.678;10.924;2022-10-31T11:50:22;8.20;;;4.57;;
38085;SDS011;23896;50.678;10.924;2022-10-31T11:52:49;11.50;;;3.88;;
38085;SDS011;23896;50.678;10.924;2022-10-31T11:55:25;8.18;;;4.20;;
38085;SDS011;23896;50.678;10.924;2022-10-31T11:57:55;12.77;;;5.05;;
38085;SDS011;23896;50.678;10.924;2022-10-31T12:00:26;11.02;;;4.45;;
38085;SDS011;23896;50.678;10.924;2022-10-31T12:05:39;9.60;;;4.57;;
38085;SDS011;23896;50.678;10.924;2022-10-31T12:08:09;10.57;;;4.50;;
38085;SDS011;23896;50.678;10.924;2022-10-31T12:13:32;10.35;;;4.32;;
38085;SDS011;23896;50.678;10.924;2022-10-31T12:24:00;17.85;;;6.35;;
38085;SDS011;23896;50.678;10.924;2022-10-31T12:26:51;13.43;;;4.70;;
38085;SDS011;23896;50.678;10.924;2022-10-31T12:37:25;10.43;;;4.90;;
38085;SDS011;23896;50.678;10.924;2022-10-31T12:45:36;11.15;;;4.45;;
38085;SDS011;23896;50.678;10.924;2022-10-31T12:51:07;11.45;;;5.78;;
38085;SDS011;23896;50.678;10.924;2022-10-31T12:56:43;11.48;;;6.20;;
38085;SDS011;23896;50.678;10.924;2022-10-31T13:02:28;8.65;;;4.93;;
38085;SDS011;23896;50.678;10.924;2022-10-31T13:07:19;8.00;;;3.83;;
38085;SDS011;23896;50.678;10.924;2022-10-31T13:09:54;8.63;;;4.10;;
38085;SDS011;23896;50.678;10.924;2022-10-31T13:12:24;13.38;;;6.55;;
38085;SDS011;23896;50.678;10.924;2022-10-31T13:14:53;13.45;;;6.40;;
38085;SDS011;23896;50.678;10.924;2022-10-31T13:17:31;18.90;;;5.80;;
38085;SDS011;23896;50.678;10.924;2022-10-31T13:22:49;10.60;;;5.30;;
38085;SDS011;23896;50.678;10.924;2022-10-31T13:25:28;12.73;;;4.38;;
38085;SDS011;23896;50.678;10.924;2022-10-31T13:28:03;8.57;;;4.28;;
38085;SDS011;23896;50.678;10.924;2022-10-31T13:30:36;9.23;;;4.93;;
38085;SDS011;23896;50.678;10.924;2022-10-31T13:33:14;16.20;;;4.47;;
38085;SDS011;23896;50.678;10.924;2022-10-31T13:38:33;10.95;;;4.80;;
38085;SDS011;23896;50.678;10.924;2022-10-31T13:46:33;11.05;;;4.78;;
38085;SDS011;23896;50.678;10.924;2022-10-31T13:49:00;10.32;;;4.50;;
38085;SDS011;23896;50.678;10.924;2022-10-31T13:51:28;14.57;;;4.45;;
38085;SDS011;23896;50.678;10.924;2022-10-31T13:56:29;11.25;;;3.67;;
38085;SDS011;23896;50.678;10.924;2022-10-31T14:01:36;9.30;;;4.88;;
38085;SDS011;23896;50.678;10.924;2022-10-31T14:04:05;11.75;;;5.00;;
38085;SDS011;23896;50.678;10.924;2022-10-31T14:09:19;10.52;;;4.47;;
38085;SDS011;23896;50.678;10.924;2022-10-31T14:11:51;10.43;;;5.32;;
38085;SDS011;23896;50.678;10.924;2022-10-31T14:14:20;16.63;;;4.38;;
38085;SDS011;23896;50.678;10.924;2022-10-31T14:16:53;13.73;;;4.88;;
38085;SDS011;23896;50.678;10.924;2022-10-31T14:19:21;12.35;;;4.57;;
38085;SDS011;23896;50.678;10.924;2022-10-31T14:21:49;11.20;;;4.72;;
38085;SDS011;23896;50.678;10.924;2022-10-31T14:26:55;8.85;;;4.65;;
38085;SDS011;23896;50.678;10.924;2022-10-31T14:32:02;11.50;;;4.60;;
38085;SDS011;23896;50.678;10.924;2022-10-31T14:34:37;11.20;;;5.10;;
38085;SDS011;23896;50.678;10.924;2022-10-31T14:42:27;7.78;;;4.47;;
38085;SDS011;23896;50.678;10.924;2022-10-31T14:47:46;14.73;;;5.65;;
38085;SDS011;23896;50.678;10.924;2022-10-31T14:52:46;11.30;;;5.55;;
38085;SDS011;23896;50.678;10.924;2022-10-31T14:55:14;8.82;;;4.53;;
38085;SDS011;23896;50.678;10.924;2022-10-31T14:57:44;9.40;;;5.18;;
38085;SDS011;23896;50.678;10.924;2022-10-31T15:00:15;8.77;;;4.72;;
38085;SDS011;23896;50.678;10.924;2022-10-31T15:02:57;10.85;;;5.40;;
38085;SDS011;23896;50.678;10.924;2022-10-31T15:05:26;8.95;;;4.82;;
38085;SDS011;23896;50.678;10.924;2022-10-31T15:07:54;9.98;;;4.78;;
38085;SDS011;23896;50.678;10.924;2022-10-31T15:12:51;11.88;;;5.70;;
38085;SDS011;23896;50.678;10.924;2022-10-31T15:15:24;11.55;;;5.82;;
38085;SDS011;23896;50.678;10.924;2022-10-31T15:17:56;7.57;;;4.95;;
38085;SDS011;23896;50.678;10.924;2022-10-31T15:20:31;9.73;;;5.10;;
38085;SDS011;23896;50.678;10.924;2022-10-31T15:23:03;9.25;;;5.50;;
38085;SDS011;23896;50.678;10.924;2022-10-31T15:25:32;12.98;;;5.82;;
38085;SDS011;23896;50.678;10.924;2022-10-31T15:27:59;11.75;;;5.63;;
38085;SDS011;23896;50.678;10.924;2022-10-31T15:30:27;9.00;;;5.05;;
38085;SDS011;23896;50.678;10.924;2022-10-31T15:32:56;15.27;;;7.03;;
38085;SDS011;23896;50.678;10.924;2022-10-31T15:35:29;12.68;;;5.90;;
38085;SDS011;23896;50.678;10.924;2022-10-31T15:37:59;9.45;;;4.97;;
38085;SDS011;23896;50.678;10.924;2022-10-31T15:40:26;10.70;;;5.03;;
38085;SDS011;23896;50.678;10.924;2022-10-31T15:43:11;9.82;;;4.97;;
38085;SDS011;23896;50.678;10.924;2022-10-31T15:45:42;13.63;;;6.30;;
38085;SDS011;23896;50.678;10.924;2022-10-31T15:48:18;18.88;;;5.10;;
38085;SDS011;23896;50.678;10.924;2022-10-31T15:50:51;9.02;;;5.65;;
38085;SDS011;23896;50.678;10.924;2022-10-31T15:54:04;16.00;;;5.45;;
38085;SDS011;23896;50.678;10.924;2022-10-31T15:56:06;15.98;;;5.82;;
38085;SDS011;23896;50.678;10.924;2022-10-31T16:01:33;14.50;;;6.50;;
38085;SDS011;23896;50.678;10.924;2022-10-31T16:04:05;13.95;;;6.22;;
38085;SDS011;23896;50.678;10.924;2022-10-31T16:06:51;8.07;;;5.93;;
38085;SDS011;23896;50.678;10.924;2022-10-31T16:09:24;14.77;;;6.13;;
38085;SDS011;23896;50.678;10.924;2022-10-31T16:11:53;11.38;;;5.28;;
38085;SDS011;23896;50.678;10.924;2022-10-31T16:14:30;23.50;;;13.00;;
38085;SDS011;23896;50.678;10.924;2022-10-31T16:16:59;22.23;;;13.20;;
38085;SDS011;23896;50.678;10.924;2022-10-31T16:19:34;33.25;;;21.05;;
38085;SDS011;23896;50.678;10.924;2022-10-31T16:22:05;23.42;;;14.93;;
38085;SDS011;23896;50.678;10.924;2022-10-31T16:24:44;17.48;;;9.48;;
38085;SDS011;23896;50.678;10.924;2022-10-31T16:27:18;14.70;;;9.65;;
38085;SDS011;23896;50.678;10.924;2022-10-31T16:29:48;21.23;;;9.35;;
38085;SDS011;23896;50.678;10.924;2022-10-31T16:32:30;20.02;;;9.40;;
38085;SDS011;23896;50.678;10.924;2022-10-31T16:34:58;15.00;;;9.43;;
38085;SDS011;23896;50.678;10.924;2022-10-31T16:37:25;17.13;;;10.88;;
38085;SDS011;23896;50.678;10.924;2022-10-31T16:39:51;14.48;;;9.23;;
38085;SDS011;23896;50.678;10.924;2022-10-31T16:42:18;10.15;;;7.75;;
38085;SDS011;23896;50.678;10.924;2022-10-31T16:44:44;14.32;;;8.13;;
38085;SDS011;23896;50.678;10.924;2022-10-31T16:47:13;13.18;;;7.38;;
38085;SDS011;23896;50.678;10.924;2022-10-31T16:49:44;13.15;;;6.93;;
38085;SDS011;23896;50.678;10.924;2022-10-31T16:52:12;14.88;;;7.15;;
38085;SDS011;23896;50.678;10.924;2022-10-31T16:54:38;13.43;;;9.18;;
38085;SDS011;23896;50.678;10.924;2022-10-31T16:57:05;19.85;;;9.75;;
38085;SDS011;23896;50.678;10.924;2022-10-31T16:59:32;16.23;;;11.30;;
38085;SDS011;23896;50.678;10.924;2022-10-31T17:02:00;17.52;;;8.73;;
38085;SDS011;23896;50.678;10.924;2022-10-31T17:04:28;12.07;;;7.50;;
38085;SDS011;23896;50.678;10.924;2022-10-31T17:06:54;11.73;;;6.95;;
38085;SDS011;23896;50.678;10.924;2022-10-31T17:09:21;11.55;;;8.27;;
38085;SDS011;23896;50.678;10.924;2022-10-31T17:11:48;11.23;;;8.70;;
38085;SDS011;23896;50.678;10.924;2022-10-31T17:14:18;16.38;;;7.63;;
38085;SDS011;23896;50.678;10.924;2022-10-31T17:16:46;15.95;;;8.57;;
38085;SDS011;23896;50.678;10.924;2022-10-31T17:19:12;12.82;;;7.38;;
38085;SDS011;23896;50.678;10.924;2022-10-31T17:21:39;13.57;;;7.57;;
38085;SDS011;23896;50.678;10.924;2022-10-31T17:24:06;12.07;;;8.07;;
38085;SDS011;23896;50.678;10.924;2022-10-31T17:26:34;16.50;;;9.43;;
38085;SDS011;23896;50.678;10.924;2022-10-31T17:29:00;16.63;;;7.47;;
38085;SDS011;23896;50.678;10.924;2022-10-31T17:31:30;18.08;;;8.43;;
38085;SDS011;23896;50.678;10.924;2022-10-31T17:34:01;14.80;;;9.02;;
38085;SDS011;23896;50.678;10.924;2022-10-31T17:36:31;19.75;;;11.43;;
38085;SDS011;23896;50.678;10.924;2022-10-31T17:39:04;32.20;;;19.38;;
38085;SDS011;23896;50.678;10.924;2022-10-31T17:41:34;41.53;;;27.40;;
38085;SDS011;23896;50.678;10.924;2022-10-31T17:44:00;66.18;;;41.78;;
38085;SDS011;23896;50.678;10.924;2022-10-31T17:46:27;18.92;;;11.73;;
38085;SDS011;23896;50.678;10.924;2022-10-31T17:48:53;22.73;;;10.80;;
38085;SDS011;23896;50.678;10.924;2022-10-31T17:51:20;18.45;;;10.20;;
38085;SDS011;23896;50.678;10.924;2022-10-31T17:53:49;22.75;;;12.27;;
38085;SDS011;23896;50.678;10.924;2022-10-31T17:56:31;15.45;;;9.63;;
38085;SDS011;23896;50.678;10.924;2022-10-31T17:59:02;20.10;;;11.25;;
38085;SDS011;23896;50.678;10.924;2022-10-31T18:01:31;28.65;;;15.13;;
38085;SDS011;23896;50.678;10.924;2022-10-31T18:04:04;20.42;;;11.85;;
38085;SDS011;23896;50.678;10.924;2022-10-31T18:06:30;21.35;;;11.73;;
38085;SDS011;23896;50.678;10.924;2022-10-31T18:09:00;18.23;;;11.63;;
38085;SDS011;23896;50.678;10.924;2022-10-31T18:11:27;25.25;;;13.95;;
38085;SDS011;23896;50.678;10.924;2022-10-31T18:13:54;25.80;;;14.82;;
38085;SDS011;23896;50.678;10.924;2022-10-31T18:16:22;17.30;;;9.32;;
38085;SDS011;23896;50.678;10.924;2022-10-31T18:18:49;18.90;;;10.15;;
38085;SDS011;23896;50.678;10.924;2022-10-31T18:21:17;19.67;;;9.43;;
38085;SDS011;23896;50.678;10.924;2022-10-31T18:23:45;19.13;;;10.13;;
38085;SDS011;23896;50.678;10.924;2022-10-31T18:26:13;19.63;;;11.85;;
38085;SDS011;23896;50.678;10.924;2022-10-31T18:28:42;20.85;;;13.80;;
38085;SDS011;23896;50.678;10.924;2022-10-31T18:31:12;15.38;;;10.52;;
38085;SDS011;23896;50.678;10.924;2022-10-31T18:33:38;23.23;;;12.65;;
38085;SDS011;23896;50.678;10.924;2022-10-31T18:36:06;22.33;;;10.52;;
38085;SDS011;23896;50.678;10.924;2022-10-31T18:38:39;17.13;;;10.60;;
38085;SDS011;23896;50.678;10.924;2022-10-31T18:41:08;17.05;;;9.93;;
38085;SDS011;23896;50.678;10.924;2022-10-31T18:43:35;23.00;;;12.00;;
38085;SDS011;23896;50.678;10.924;2022-10-31T18:46:02;15.68;;;8.52;;
38085;SDS011;23896;50.678;10.924;2022-10-31T18:48:29;19.70;;;10.30;;
38085;SDS011;23896;50.678;10.924;2022-10-31T18:51:05;24.38;;;10.55;;
38085;SDS011;23896;50.678;10.924;2022-10-31T18:53:31;15.50;;;8.57;;
38085;SDS011;23896;50.678;10.924;2022-10-31T18:55:58;14.55;;;7.82;;
38085;SDS011;23896;50.678;10.924;2022-10-31T18:58:25;16.92;;;8.77;;
38085;SDS011;23896;50.678;10.924;2022-10-31T19:00:52;23.02;;;9.80;;
38085;SDS011;23896;50.678;10.924;2022-10-31T19:03:19;16.17;;;9.95;;
38085;SDS011;23896;50.678;10.924;2022-10-31T19:05:48;17.45;;;11.05;;
38085;SDS011;23896;50.678;10.924;2022-10-31T19:08:14;19.45;;;10.48;;
38085;SDS011;23896;50.678;10.924;2022-10-31T19:10:41;17.95;;;10.85;;
38085;SDS011;23896;50.678;10.924;2022-10-31T19:13:07;14.55;;;10.48;;
38085;SDS011;23896;50.678;10.924;2022-10-31T19:15:34;17.17;;;10.68;;
38085;SDS011;23896;50.678;10.924;2022-10-31T19:18:01;18.58;;;10.93;;
38085;SDS011;23896;50.678;10.924;2022-10-31T19:20:31;17.27;;;10.85;;
38085;SDS011;23896;50.678;10.924;2022-10-31T19:23:04;21.90;;;10.77;;
38085;SDS011;23896;50.678;10.924;2022-10-31T19:25:32;15.20;;;7.78;;
38085;SDS011;23896;50.678;10.924;2022-10-31T19:28:01;12.18;;;7.68;;
38085;SDS011;23896;50.678;10.924;2022-10-31T19:30:28;11.63;;;7.18;;
38085;SDS011;23896;50.678;10.924;2022-10-31T19:33:00;11.30;;;6.38;;
38085;SDS011;23896;50.678;10.924;2022-10-31T19:35:27;12.50;;;5.38;;
38085;SDS011;23896;50.678;10.924;2022-10-31T19:37:56;13.50;;;6.47;;
38085;SDS011;23896;50.678;10.924;2022-10-31T19:40:25;14.95;;;6.15;;
38085;SDS011;23896;50.678;10.924;2022-10-31T19:42:52;11.40;;;7.43;;
38085;SDS011;23896;50.678;10.924;2022-10-31T19:45:18;12.57;;;6.65;;
38085;SDS011;23896;50.678;10.924;2022-10-31T19:47:48;11.23;;;6.55;;
38085;SDS011;23896;50.678;10.924;2022-10-31T19:50:17;11.23;;;5.78;;
38085;SDS011;23896;50.678;10.924;2022-10-31T19:52:45;11.13;;;6.05;;
38085;SDS011;23896;50.678;10.924;2022-10-31T19:55:11;12.85;;;7.03;;
38085;SDS011;23896;50.678;10.924;2022-10-31T19:57:43;14.20;;;7.78;;